createdAt,value
2018-06-09T00:02:05.003Z,72.70
2018-06-09T00:04:34.221Z,73.60
2018-06-09T00:07:03.455Z,72.70
2018-06-09T00:09:32.680Z,72.70
2018-06-09T00:12:02.084Z,72.00
2018-06-09T00:16:59.981Z,72.80
2018-06-09T00:19:29.213Z,72.90
2018-06-09T00:21:58.463Z,72.90
2018-06-09T00:24:27.709Z,72.90
2018-06-09T00:26:56.976Z,73.00
2018-06-09T00:29:26.244Z,73.10
2018-06-09T00:31:55.550Z,72.90
2018-06-09T00:36:53.392Z,73.10
2018-06-09T00:39:22.651Z,73.10
2018-06-09T00:41:51.936Z,73.10
2018-06-09T00:44:21.113Z,73.20
2018-06-09T00:46:50.323Z,73.10
2018-06-09T00:49:19.565Z,73.10
2018-06-09T00:51:48.821Z,73.10
2018-06-09T00:54:18.088Z,73.10
2018-06-09T00:56:48.310Z,73.20
2018-06-09T00:59:17.578Z,73.10
2018-06-09T01:01:46.840Z,73.10
2018-06-09T01:04:16.040Z,73.10
2018-06-09T01:06:45.232Z,73.10
2018-06-09T01:09:14.441Z,73.10
2018-06-09T01:11:43.840Z,73.40
2018-06-09T01:14:13.068Z,73.10
2018-06-09T01:16:42.268Z,73.10
2018-06-09T01:19:11.500Z,73.00
2018-06-09T01:21:40.771Z,72.90
2018-06-09T01:24:09.998Z,72.90
2018-06-09T01:26:39.217Z,72.90
2018-06-09T01:29:08.496Z,72.90
2018-06-09T01:31:37.721Z,72.90
2018-06-09T01:34:06.967Z,72.90
2018-06-09T01:36:36.191Z,73.30
2018-06-09T01:39:07.949Z,72.80
2018-06-09T01:41:37.388Z,72.90
2018-06-09T01:44:06.681Z,72.90
2018-06-09T01:46:35.946Z,72.80
2018-06-09T01:49:05.139Z,73.00
2018-06-09T01:51:34.467Z,72.80
2018-06-09T01:54:03.722Z,72.70
2018-06-09T01:56:32.915Z,72.60
2018-06-09T01:59:02.152Z,72.60
2018-06-09T02:01:31.412Z,72.70
2018-06-09T02:04:00.677Z,72.60
2018-06-09T02:06:29.878Z,72.60
2018-06-09T02:08:59.081Z,72.60
2018-06-09T02:13:57.052Z,72.60
2018-06-09T02:16:26.261Z,72.60
2018-06-09T02:18:55.456Z,72.50
2018-06-09T02:21:24.792Z,73.40
2018-06-09T02:23:54.400Z,72.50
2018-06-09T02:26:23.584Z,72.60
2018-06-09T02:28:52.852Z,72.60
2018-06-09T02:31:22.061Z,72.60
2018-06-09T02:33:51.263Z,72.50
2018-06-09T02:36:20.521Z,72.60
2018-06-09T02:38:49.735Z,72.60
2018-06-09T02:41:19.019Z,72.60
2018-06-09T02:43:48.197Z,72.60
2018-06-09T02:46:17.426Z,72.60
2018-06-09T02:48:46.693Z,72.60
2018-06-09T02:51:15.949Z,72.60
2018-06-09T02:53:45.142Z,72.60
2018-06-09T02:56:14.622Z,72.60
2018-06-09T02:58:43.820Z,72.40
2018-06-09T03:01:13.072Z,72.30
2018-06-09T03:03:42.321Z,72.30
2018-06-09T03:06:11.621Z,72.40
2018-06-09T03:08:40.957Z,72.40
2018-06-09T03:11:10.276Z,72.30
2018-06-09T03:13:39.452Z,72.30
2018-06-09T03:16:08.649Z,72.50
2018-06-09T03:18:37.852Z,72.40
2018-06-09T03:21:07.237Z,72.40
2018-06-09T03:23:36.485Z,72.40
2018-06-09T03:26:05.745Z,72.40
2018-06-09T03:28:35.391Z,72.50
2018-06-09T03:31:04.774Z,72.40
2018-06-09T03:33:33.960Z,72.30
2018-06-09T03:36:03.189Z,72.40
2018-06-09T03:38:32.390Z,72.30
2018-06-09T03:41:01.742Z,72.30
2018-06-09T03:43:30.954Z,72.30
2018-06-09T03:46:00.153Z,72.30
2018-06-09T03:48:29.356Z,72.30
2018-06-09T03:50:58.645Z,72.30
2018-06-09T03:53:27.886Z,72.30
2018-06-09T03:55:57.108Z,72.30
2018-06-09T03:58:27.223Z,72.20
2018-06-09T04:00:56.469Z,72.30
2018-06-09T04:03:25.701Z,72.20
2018-06-09T04:05:54.925Z,72.30
2018-06-09T04:08:24.137Z,72.20
2018-06-09T04:10:53.408Z,72.10
2018-06-09T04:13:22.656Z,72.00
2018-06-09T04:15:51.853Z,72.00
2018-06-09T04:18:21.054Z,71.40
2018-06-09T04:20:50.358Z,71.90
2018-06-09T04:23:19.554Z,72.00
2018-06-09T04:28:17.453Z,71.90
2018-06-09T04:30:46.737Z,71.90
2018-06-09T04:35:44.797Z,71.80
2018-06-09T04:38:13.991Z,71.70
2018-06-09T04:40:43.223Z,71.60
2018-06-09T04:43:12.421Z,71.60
2018-06-09T04:45:41.679Z,71.60
2018-06-09T04:48:10.876Z,71.70
2018-06-09T04:50:40.124Z,71.70
2018-06-09T04:53:09.320Z,71.70
2018-06-09T04:55:38.513Z,71.80
2018-06-09T04:58:07.732Z,71.80
2018-06-09T05:00:37.049Z,72.60
2018-06-09T05:03:06.249Z,71.70
2018-06-09T05:05:35.485Z,71.80
2018-06-09T05:08:04.696Z,71.80
2018-06-09T05:10:33.948Z,71.80
2018-06-09T05:13:03.210Z,71.80
2018-06-09T05:15:32.402Z,71.80
2018-06-09T05:18:01.665Z,71.20
2018-06-09T05:20:30.900Z,72.70
2018-06-09T05:23:00.107Z,71.90
2018-06-09T05:25:29.406Z,72.00
2018-06-09T05:27:58.721Z,72.20
2018-06-09T05:30:28.009Z,72.40
2018-06-09T05:32:57.326Z,72.30
2018-06-09T05:35:26.609Z,72.40
2018-06-09T05:37:56.072Z,72.40
2018-06-09T05:40:25.376Z,72.50
2018-06-09T05:42:54.602Z,73.90
2018-06-09T05:45:23.897Z,75.60
2018-06-09T05:47:53.104Z,76.70
2018-06-09T05:50:22.452Z,77.80
2018-06-09T05:52:51.704Z,79.10
2018-06-09T05:55:20.999Z,78.60
2018-06-09T05:57:50.356Z,79.10
2018-06-09T06:00:19.652Z,79.60
2018-06-09T06:02:48.970Z,80.60
2018-06-09T06:05:18.174Z,79.90
2018-06-09T06:07:47.373Z,80.70
2018-06-09T06:10:16.853Z,81.10
2018-06-09T06:12:46.071Z,80.80
2018-06-09T06:15:15.280Z,81.60
2018-06-09T06:17:44.545Z,80.80
2018-06-09T06:20:13.876Z,80.80
2018-06-09T06:22:43.196Z,81.00
2018-06-09T06:25:12.444Z,81.20
2018-06-09T06:27:41.706Z,81.40
2018-06-09T06:30:10.943Z,81.50
2018-06-09T06:32:40.201Z,81.50
2018-06-09T06:35:09.628Z,82.00
2018-06-09T06:40:07.658Z,81.70
2018-06-09T06:42:37.792Z,81.60
2018-06-09T06:45:07.080Z,81.60
2018-06-09T06:47:36.325Z,82.20
2018-06-09T06:50:05.605Z,82.00
2018-06-09T06:52:34.892Z,81.50
2018-06-09T06:55:04.179Z,82.00
2018-06-09T06:57:33.441Z,82.60
2018-06-09T07:00:02.790Z,82.00
2018-06-09T07:02:32.024Z,81.80
2018-06-09T07:05:01.389Z,81.40
2018-06-09T07:07:30.728Z,82.60
2018-06-09T07:10:00.016Z,81.50
2018-06-09T07:12:29.324Z,81.10
2018-06-09T07:14:58.632Z,81.30
2018-06-09T07:17:27.934Z,81.30
2018-06-09T07:19:57.211Z,81.30
2018-06-09T07:22:26.500Z,81.00
2018-06-09T07:24:55.787Z,81.50
2018-06-09T07:27:25.145Z,81.70
2018-06-09T07:29:54.469Z,81.30
2018-06-09T07:32:23.777Z,81.10
2018-06-09T07:34:53.149Z,81.00
2018-06-09T07:37:22.444Z,81.20
2018-06-09T07:39:51.798Z,81.40
2018-06-09T07:42:21.085Z,81.40
2018-06-09T07:44:50.324Z,81.60
2018-06-09T07:47:19.720Z,81.40
2018-06-09T07:49:49.029Z,81.40
2018-06-09T07:52:18.444Z,80.80
2018-06-09T07:54:47.735Z,80.70
2018-06-09T07:57:16.995Z,80.90
2018-06-09T07:59:46.445Z,80.80
2018-06-09T08:02:15.822Z,80.80
2018-06-09T08:04:45.137Z,80.90
2018-06-09T08:07:14.378Z,80.70
2018-06-09T08:09:43.608Z,81.10
2018-06-09T08:12:12.942Z,80.90
2018-06-09T08:14:42.256Z,80.80
2018-06-09T08:17:11.552Z,80.60
2018-06-09T08:19:41.137Z,80.40
2018-06-09T08:22:10.452Z,80.30
2018-06-09T08:24:39.801Z,80.10
2018-06-09T08:27:25.101Z,80.10
2018-06-09T08:29:54.819Z,79.90
2018-06-09T08:32:26.897Z,79.70
2018-06-09T08:34:56.253Z,79.70
2018-06-09T08:37:25.492Z,80.10
2018-06-09T08:39:54.896Z,79.40
2018-06-09T08:42:24.199Z,79.30
2018-06-09T08:44:53.505Z,79.20
2018-06-09T08:47:22.697Z,79.10
2018-06-09T08:49:52.348Z,79.20
2018-06-09T08:52:21.734Z,79.20
2018-06-09T08:54:51.046Z,79.20
2018-06-09T08:57:20.306Z,79.20
2018-06-09T08:59:49.577Z,79.00
2018-06-09T09:02:21.447Z,78.90
2018-06-09T09:04:50.711Z,78.90
2018-06-09T09:07:19.973Z,78.80
2018-06-09T09:09:49.280Z,78.70
2018-06-09T09:12:19.343Z,78.60
2018-06-09T09:14:48.608Z,78.60
2018-06-09T09:17:17.834Z,78.40
2018-06-09T09:19:47.092Z,78.30
2018-06-09T09:22:16.524Z,78.30
2018-06-09T09:24:45.837Z,78.20
2018-06-09T09:27:15.096Z,78.20
2018-06-09T09:29:44.360Z,78.20
2018-06-09T09:32:13.732Z,78.10
2018-06-09T09:34:43.042Z,77.90
2018-06-09T09:37:12.306Z,77.80
2018-06-09T09:39:41.604Z,77.70
2018-06-09T09:42:11.071Z,77.70
2018-06-09T09:44:40.306Z,77.70
2018-06-09T09:47:09.641Z,77.60
2018-06-09T09:49:38.937Z,77.40
2018-06-09T09:52:08.257Z,77.40
2018-06-09T09:54:37.700Z,77.40
2018-06-09T09:57:06.994Z,77.40
2018-06-09T09:59:36.326Z,77.40
2018-06-09T10:02:05.766Z,77.20
2018-06-09T10:04:35.056Z,77.30
2018-06-09T10:07:04.449Z,77.30
2018-06-09T10:09:33.704Z,77.20
2018-06-09T10:12:02.973Z,77.20
2018-06-09T10:14:32.329Z,77.10
2018-06-09T10:17:01.574Z,77.10
2018-06-09T10:19:31.569Z,77.00
2018-06-09T10:22:00.922Z,77.00
2018-06-09T10:24:30.190Z,77.00
2018-06-09T10:26:59.783Z,77.00
2018-06-09T10:29:29.156Z,77.10
2018-06-09T10:31:58.553Z,77.10
2018-06-09T10:34:27.847Z,77.10
2018-06-09T10:36:57.177Z,77.10
2018-06-09T10:39:26.544Z,77.10
2018-06-09T10:41:55.914Z,77.20
2018-06-09T10:44:25.222Z,77.20
2018-06-09T10:46:54.485Z,77.30
2018-06-09T10:49:23.792Z,77.40
2018-06-09T10:51:53.184Z,77.30
2018-06-09T10:54:22.467Z,77.30
2018-06-09T10:56:51.744Z,77.40
2018-06-09T10:59:21.076Z,77.40
2018-06-09T11:01:50.540Z,77.40
2018-06-09T11:04:19.933Z,77.50
2018-06-09T11:06:49.219Z,77.40
2018-06-09T11:09:18.559Z,77.60
2018-06-09T11:11:47.962Z,77.40
2018-06-09T11:14:17.255Z,77.60
2018-06-09T11:16:46.565Z,77.50
2018-06-09T11:19:15.880Z,77.50
2018-06-09T11:21:45.304Z,77.50
2018-06-09T11:24:14.600Z,77.40
2018-06-09T11:26:43.903Z,77.50
2018-06-09T11:29:13.278Z,77.30
2018-06-09T11:31:42.796Z,77.40
2018-06-09T11:34:12.097Z,77.40
2018-06-09T11:36:41.345Z,77.30
2018-06-09T11:39:10.585Z,77.20
2018-06-09T11:41:39.961Z,77.20
2018-06-09T11:44:09.365Z,77.20
2018-06-09T11:46:38.680Z,77.10
2018-06-09T11:49:07.965Z,77.10
2018-06-09T11:51:37.268Z,77.10
2018-06-09T11:54:06.574Z,77.10
2018-06-09T11:56:35.869Z,77.20
2018-06-09T11:59:05.139Z,77.10
2018-06-09T12:01:34.494Z,77.40
2018-06-09T12:04:04.228Z,77.30
2018-06-09T12:06:33.692Z,77.20
2018-06-09T12:09:02.996Z,77.20
2018-06-09T12:11:32.367Z,77.30
2018-06-09T12:14:01.665Z,77.20
2018-06-09T12:16:31.038Z,77.10
2018-06-09T12:19:00.548Z,77.10
2018-06-09T12:21:29.904Z,77.10
2018-06-09T12:23:59.167Z,77.00
2018-06-09T12:26:28.903Z,77.80
2018-06-09T12:28:58.184Z,77.00
2018-06-09T12:31:27.485Z,76.90
2018-06-09T12:33:56.716Z,77.00
2018-06-09T12:36:26.460Z,76.80
2018-06-09T12:38:55.687Z,76.90
2018-06-09T12:41:25.036Z,76.90
2018-06-09T12:43:54.263Z,76.90
2018-06-09T12:46:23.567Z,76.80
2018-06-09T12:48:53.025Z,76.60
2018-06-09T12:51:22.266Z,76.60
2018-06-09T12:53:51.520Z,76.60
2018-06-09T12:56:20.825Z,76.60
2018-06-09T12:58:50.564Z,76.50
2018-06-09T13:01:19.912Z,76.50
2018-06-09T13:03:49.232Z,76.50
2018-06-09T13:06:18.484Z,76.50
2018-06-09T13:08:47.912Z,76.40
2018-06-09T13:11:17.250Z,76.40
2018-06-09T13:13:46.464Z,76.40
2018-06-09T13:16:15.711Z,76.40
2018-06-09T13:18:44.958Z,76.30
2018-06-09T13:21:14.312Z,76.30
2018-06-09T13:23:43.548Z,76.30
2018-06-09T13:26:12.845Z,76.30
2018-06-09T13:28:42.137Z,76.30
2018-06-09T13:31:11.490Z,76.30
2018-06-09T13:33:40.786Z,76.20
2018-06-09T13:36:10.219Z,76.20
2018-06-09T13:38:39.596Z,76.10
2018-06-09T13:41:09.010Z,76.10
2018-06-09T13:43:38.364Z,76.20
2018-06-09T13:46:07.756Z,76.10
2018-06-09T13:48:37.228Z,76.20
2018-06-09T13:51:06.689Z,76.10
2018-06-09T13:53:36.142Z,76.20
2018-06-09T13:56:05.417Z,76.10
2018-06-09T13:58:34.934Z,76.10
2018-06-09T14:01:04.257Z,76.10
2018-06-09T14:03:33.597Z,76.00
2018-06-09T14:06:02.935Z,76.10
2018-06-09T14:08:32.185Z,76.00
2018-06-09T14:11:01.577Z,76.00
2018-06-09T14:13:31.248Z,76.00
2018-06-09T14:16:00.551Z,75.90
2018-06-09T14:18:29.826Z,75.90
2018-06-09T14:20:59.294Z,75.90
2018-06-09T14:23:28.570Z,75.90
2018-06-09T14:25:57.912Z,75.90
2018-06-09T14:28:27.234Z,75.90
2018-06-09T14:30:56.601Z,75.80
2018-06-09T14:33:25.869Z,75.80
2018-06-09T14:35:55.193Z,75.80
2018-06-09T14:38:24.485Z,75.80
2018-06-09T14:40:53.808Z,76.70
2018-06-09T14:43:23.168Z,75.80
2018-06-09T14:45:52.845Z,75.90
2018-06-09T14:48:22.155Z,75.80
2018-06-09T14:50:51.497Z,75.80
2018-06-09T14:53:20.788Z,75.80
2018-06-09T14:55:50.024Z,75.80
2018-06-09T15:00:48.207Z,76.40
2018-06-09T15:03:17.525Z,75.90
2018-06-09T15:05:46.808Z,75.90
2018-06-09T15:08:16.156Z,75.80
2018-06-09T15:10:45.446Z,75.80
2018-06-09T15:13:14.853Z,75.80
2018-06-09T15:15:44.200Z,75.70
2018-06-09T15:18:13.469Z,75.80
2018-06-09T15:20:42.812Z,75.80
2018-06-09T15:23:12.198Z,75.90
2018-06-09T15:25:41.513Z,75.80
2018-06-09T15:28:10.839Z,75.70
2018-06-09T15:30:40.209Z,75.70
2018-06-09T15:33:09.560Z,75.70
2018-06-09T15:35:38.854Z,75.80
2018-06-09T15:38:08.308Z,75.80
2018-06-09T15:40:37.670Z,75.70
2018-06-09T15:43:06.928Z,75.80
2018-06-09T15:48:04.912Z,76.50
2018-06-09T15:50:34.651Z,75.60
2018-06-09T15:53:03.912Z,75.70
2018-06-09T15:55:33.152Z,75.60
2018-06-09T15:58:02.453Z,75.60
2018-06-09T16:00:31.822Z,75.60
2018-06-09T16:03:01.117Z,75.60
2018-06-09T16:05:30.361Z,75.50
2018-06-09T16:07:59.691Z,75.50
2018-06-09T16:10:29.036Z,75.50
2018-06-09T16:12:58.333Z,75.50
2018-06-09T16:15:27.684Z,75.50
2018-06-09T16:17:56.994Z,75.50
2018-06-09T16:20:26.285Z,75.50
2018-06-09T16:22:55.628Z,75.50
2018-06-09T16:25:24.900Z,75.40
2018-06-09T16:27:54.205Z,75.40
2018-06-09T16:30:23.533Z,75.70
2018-06-09T16:32:52.872Z,75.40
2018-06-09T16:35:22.103Z,75.40
2018-06-09T16:37:51.360Z,75.30
2018-06-09T16:40:20.787Z,75.30
2018-06-09T16:42:50.029Z,75.40
2018-06-09T16:45:19.366Z,75.40
2018-06-09T16:47:48.606Z,75.30
2018-06-09T16:50:18.074Z,75.30
2018-06-09T16:52:47.412Z,75.30
2018-06-09T16:55:16.903Z,75.40
2018-06-09T16:57:47.019Z,75.30
2018-06-09T17:00:16.330Z,75.30
2018-06-09T17:02:45.753Z,76.00
2018-06-09T17:05:15.189Z,75.30
2018-06-09T17:07:44.564Z,75.30
2018-06-09T17:10:14.080Z,75.40
2018-06-09T17:15:12.069Z,76.70
2018-06-09T17:18:15.162Z,76.80
2018-06-09T17:20:44.832Z,76.70
2018-06-09T17:23:14.261Z,77.30
2018-06-09T17:25:43.829Z,77.60
2018-06-09T17:28:13.160Z,77.40
2018-06-09T17:31:30.473Z,77.70
2018-06-09T17:33:59.806Z,77.60
2018-06-09T17:36:29.823Z,77.50
2018-06-09T17:38:59.147Z,77.50
2018-06-09T17:41:28.670Z,77.50
2018-06-09T17:43:58.054Z,77.50
2018-06-09T17:46:27.436Z,77.20
2018-06-09T17:51:25.652Z,77.50
2018-06-09T17:53:55.009Z,77.60
2018-06-09T17:56:24.775Z,77.90
2018-06-09T17:58:54.210Z,77.60
2018-06-09T18:01:23.524Z,77.90
2018-06-09T18:03:52.796Z,78.00
2018-06-09T18:06:22.212Z,78.10
2018-06-09T18:08:51.705Z,78.10
2018-06-09T18:11:21.116Z,78.00
2018-06-09T18:13:50.780Z,78.00
2018-06-09T18:16:20.135Z,77.90
2018-06-09T18:18:49.683Z,77.70
2018-06-09T18:21:19.236Z,78.00
2018-06-09T18:23:48.545Z,78.20
2018-06-09T18:26:17.865Z,78.10
2018-06-09T18:28:47.474Z,78.20
2018-06-09T18:31:16.818Z,78.10
2018-06-09T18:36:14.901Z,77.90
2018-06-09T18:38:44.173Z,77.80
2018-06-09T18:41:13.613Z,77.90
2018-06-09T18:43:43.930Z,78.00
2018-06-09T18:46:13.231Z,77.90
2018-06-09T18:48:42.507Z,77.70
2018-06-09T18:51:11.901Z,77.80
2018-06-09T18:53:41.222Z,77.90
2018-06-09T18:56:10.537Z,77.80
2018-06-09T18:58:39.926Z,77.60
2018-06-09T19:01:09.778Z,77.70
2018-06-09T19:03:39.309Z,77.70
2018-06-09T19:06:08.673Z,77.70
2018-06-09T19:08:37.929Z,78.50
2018-06-09T19:11:07.467Z,77.80
2018-06-09T20:45:24.697Z,77.20
2018-06-09T20:47:54.008Z,77.90
2018-06-09T20:50:23.364Z,77.80
2018-06-09T20:52:52.636Z,77.80
2018-06-09T20:55:21.923Z,77.70
2018-06-09T20:57:51.164Z,77.70
2018-06-09T21:00:20.592Z,77.70
2018-06-09T21:02:49.924Z,77.80
2018-06-09T21:05:19.173Z,77.80
2018-06-09T21:07:48.479Z,77.70
2018-06-09T21:10:17.868Z,77.70
2018-06-09T21:12:47.175Z,77.80
2018-06-09T21:15:16.531Z,77.70
2018-06-09T21:17:45.930Z,77.70
2018-06-09T21:20:15.284Z,77.70
2018-06-09T21:22:44.578Z,77.60
2018-06-09T21:25:13.844Z,77.60
2018-06-09T21:27:48.232Z,77.50
2018-06-09T21:30:21.776Z,77.60
2018-06-09T21:32:56.916Z,77.60
2018-06-09T21:36:08.636Z,77.50
2018-06-09T21:38:44.009Z,77.50
2018-06-09T21:41:18.529Z,77.50
2018-06-09T21:43:56.887Z,77.40
2018-06-09T21:46:32.822Z,77.40
2018-06-09T21:49:02.903Z,77.40
2018-06-09T21:51:32.444Z,77.30
2018-06-09T21:54:01.795Z,77.30
2018-06-09T21:56:31.447Z,77.10
2018-06-09T21:59:00.860Z,77.40
2018-06-09T22:01:30.313Z,77.30
2018-06-09T22:03:59.831Z,77.30
2018-06-09T22:08:58.146Z,77.70
2018-06-09T22:11:27.732Z,77.60
